Terminal Aerodrome Forecast
Issued by NWS Wichita, KS

Home | Current Version | Previous Version | Text Only | Print | Product List | Glossary Off
Versions: 1 2 3 4 5 6 7 8 9 10 11 12 13 14 15 16 17 18 19 20 21 22 23 24 25 26

790
FTUS43 KICT 161355 AAB
TAFICT
TAF AMD
KICT 161355Z 1614/1712 16012KT P6SM VCTS SCT050 BKN100CB
      TEMPO 1614/1616 VRB15G30KT 5SM TSRA OVC050CB
     FM161700 18019G27KT P6SM SCT100
     FM170000 21015G22KT P6SM VCTS BKN080CB
     FM170500 02012G20KT P6SM BKN120=

USA.gov is the U.S. government's official web portal to all federal, state and local government web resources and services.